createdAt,value
2022-08-02T00:01:44.673Z,13.70
2022-08-02T00:04:12.843Z,13.70
2022-08-02T00:06:40.715Z,13.70
2022-08-02T00:09:10.027Z,13.70
2022-08-02T00:11:37.889Z,13.60
2022-08-02T00:14:11.503Z,13.60
2022-08-02T00:16:39.391Z,13.60
2022-08-02T00:19:07.464Z,13.60
2022-08-02T00:21:35.362Z,13.50
2022-08-02T00:24:28.700Z,13.50
2022-08-02T00:26:52.331Z,13.50
2022-08-02T00:29:20.147Z,13.50
2022-08-02T00:31:47.897Z,13.40
2022-08-02T00:34:28.432Z,13.40
2022-08-02T00:36:58.957Z,13.40
2022-08-02T00:39:35.245Z,13.40
2022-08-02T00:42:05.215Z,13.40
2022-08-02T00:44:33.064Z,13.30
2022-08-02T00:47:01.921Z,13.30
2022-08-02T00:49:29.860Z,13.30
2022-08-02T00:51:57.721Z,13.30
2022-08-02T00:54:25.632Z,13.30
2022-08-02T00:56:53.445Z,13.30
2022-08-02T00:59:22.706Z,13.30
2022-08-02T01:01:57.034Z,13.20
2022-08-02T01:04:31.461Z,13.20
2022-08-02T01:07:00.399Z,13.20
2022-08-02T01:09:28.401Z,13.20
2022-08-02T01:11:56.621Z,13.20
2022-08-02T01:14:27.077Z,13.20
2022-08-02T01:17:00.952Z,13.20
2022-08-02T01:19:38.338Z,13.20
2022-08-02T01:23:00.109Z,13.20
2022-08-02T01:25:37.861Z,13.20
2022-08-02T01:28:27.739Z,13.10
2022-08-02T01:30:59.415Z,13.10
2022-08-02T01:33:32.636Z,13.10
2022-08-02T01:36:02.929Z,13.10
2022-08-02T01:38:36.481Z,13.10
2022-08-02T01:41:06.195Z,13.10
2022-08-02T01:43:37.256Z,13.10
2022-08-02T01:46:06.092Z,13.10
2022-08-02T01:48:35.327Z,13.00
2022-08-02T01:51:04.959Z,13.00
2022-08-02T01:53:34.767Z,13.00
2022-08-02T01:56:04.052Z,12.90
2022-08-02T01:58:35.192Z,12.90
2022-08-02T02:01:06.978Z,12.90
2022-08-02T02:03:41.692Z,12.90
2022-08-02T02:06:12.830Z,12.80
2022-08-02T02:08:42.593Z,12.80
2022-08-02T02:12:11.985Z,12.80
2022-08-02T02:13:59.904Z,12.80
2022-08-02T02:16:32.039Z,12.80
2022-08-02T02:19:02.701Z,12.70
2022-08-02T02:21:31.430Z,12.70
2022-08-02T02:24:00.241Z,12.60
2022-08-02T02:26:31.346Z,12.60
2022-08-02T02:29:02.346Z,12.60
2022-08-02T02:31:35.350Z,12.50
2022-08-02T02:34:06.316Z,12.50
2022-08-02T02:36:35.085Z,12.50
2022-08-02T02:39:07.157Z,12.40
2022-08-02T02:41:41.929Z,12.40
2022-08-02T02:44:14.276Z,12.30
2022-08-02T02:46:45.350Z,12.30
2022-08-02T02:49:14.267Z,12.30
2022-08-02T02:51:42.915Z,12.20
2022-08-02T02:54:29.937Z,12.20
2022-08-02T02:57:00.882Z,12.20
2022-08-02T02:59:29.542Z,12.20
2022-08-02T03:01:59.199Z,12.20
2022-08-02T03:04:36.106Z,12.10
2022-08-02T03:07:17.094Z,12.10
2022-08-02T03:09:47.278Z,12.10
2022-08-02T03:12:24.880Z,12.10
2022-08-02T03:14:58.517Z,12.10
2022-08-02T03:17:37.915Z,12.10
2022-08-02T03:20:10.497Z,12.10
2022-08-02T03:22:38.353Z,12.10
2022-08-02T03:25:07.117Z,12.10
2022-08-02T03:27:34.979Z,12.00
2022-08-02T03:30:03.132Z,12.00
2022-08-02T03:32:32.376Z,12.10
2022-08-02T03:35:00.213Z,12.10
2022-08-02T03:37:29.512Z,12.10
2022-08-02T03:39:59.126Z,12.10
2022-08-02T03:42:28.774Z,12.10
2022-08-02T03:44:57.736Z,12.10
2022-08-02T03:47:26.275Z,12.10
2022-08-02T03:49:56.916Z,12.10
2022-08-02T03:52:25.541Z,12.10
2022-08-02T03:54:53.353Z,12.10
2022-08-02T03:57:21.377Z,12.10
2022-08-02T03:59:49.217Z,12.20
2022-08-02T04:02:16.985Z,12.20
2022-08-02T04:04:44.706Z,12.20
2022-08-02T04:07:13.829Z,12.20
2022-08-02T04:09:41.632Z,12.20
2022-08-02T04:12:11.370Z,12.20
2022-08-02T04:14:39.557Z,12.30
2022-08-02T04:17:10.120Z,12.30
2022-08-02T04:19:41.809Z,12.30
2022-08-02T04:22:17.231Z,12.30
2022-08-02T04:24:50.706Z,12.30
2022-08-02T04:27:50.904Z,12.30
2022-08-02T04:30:09.111Z,12.30
2022-08-02T04:32:37.924Z,12.30
2022-08-02T04:35:21.963Z,12.20
2022-08-02T04:38:08.710Z,12.20
2022-08-02T04:40:38.415Z,12.20
2022-08-02T04:43:06.574Z,12.20
2022-08-02T04:45:35.069Z,12.20
2022-08-02T04:48:05.673Z,12.20
2022-08-02T04:50:34.805Z,12.10
2022-08-02T04:53:04.213Z,12.10
2022-08-02T04:55:32.011Z,12.10
2022-08-02T04:58:03.761Z,12.10
2022-08-02T05:00:32.439Z,12.10
2022-08-02T05:03:01.359Z,12.10
2022-08-02T05:05:29.400Z,12.10
2022-08-02T05:07:57.244Z,12.10
2022-08-02T05:10:26.577Z,12.10
2022-08-02T05:12:54.398Z,12.20
2022-08-02T05:15:22.226Z,12.20
2022-08-02T05:17:50.332Z,12.30
2022-08-02T05:20:18.833Z,12.40
2022-08-02T05:22:47.414Z,12.40
2022-08-02T05:25:15.625Z,12.60
2022-08-02T05:27:44.752Z,12.70
2022-08-02T05:30:13.267Z,12.70
2022-08-02T05:32:45.437Z,12.80
2022-08-02T05:35:13.391Z,13.00
2022-08-02T05:37:43.018Z,13.10
2022-08-02T05:40:12.877Z,13.20
2022-08-02T05:42:41.402Z,13.30
2022-08-02T05:45:11.330Z,13.40
2022-08-02T05:47:39.712Z,13.50
2022-08-02T05:50:09.714Z,13.70
2022-08-02T05:52:45.780Z,13.80
2022-08-02T05:55:18.299Z,13.90
2022-08-02T05:57:54.456Z,14.00
2022-08-02T06:00:23.964Z,14.20
2022-08-02T06:03:05.660Z,14.30
2022-08-02T06:05:41.565Z,14.40
2022-08-02T06:08:10.289Z,14.50
2022-08-02T06:10:38.973Z,14.70
2022-08-02T06:13:13.534Z,14.70
2022-08-02T06:15:53.444Z,14.80
2022-08-02T06:18:28.040Z,14.90
2022-08-02T06:20:58.753Z,15.00
2022-08-02T06:23:57.400Z,15.00
2022-08-02T06:26:27.365Z,15.10
2022-08-02T06:28:56.376Z,15.20
2022-08-02T06:31:25.818Z,15.30
2022-08-02T06:33:53.691Z,15.40
2022-08-02T06:36:29.379Z,15.50
2022-08-02T06:39:03.786Z,15.50
2022-08-02T06:41:39.026Z,15.60
2022-08-02T06:44:33.826Z,15.70
2022-08-02T06:47:11.134Z,15.70
2022-08-02T06:49:51.514Z,15.80
2022-08-02T06:52:24.326Z,15.80
2022-08-02T06:54:56.439Z,15.80
2022-08-02T06:57:24.267Z,15.90
2022-08-02T06:59:52.155Z,16.00
2022-08-02T07:02:21.793Z,16.10
2022-08-02T07:04:49.661Z,16.10
2022-08-02T07:07:17.534Z,16.10
2022-08-02T07:09:56.828Z,16.20
2022-08-02T07:12:31.110Z,16.20
2022-08-02T07:14:59.600Z,16.30
2022-08-02T07:17:28.999Z,16.40
2022-08-02T07:19:57.428Z,16.40
2022-08-02T07:22:27.044Z,16.50
2022-08-02T07:24:56.364Z,16.50
2022-08-02T07:27:24.552Z,16.50
2022-08-02T07:29:52.656Z,16.60
2022-08-02T07:32:22.662Z,16.60
2022-08-02T07:34:54.970Z,16.70
2022-08-02T07:37:53.448Z,16.80
2022-08-02T07:40:15.318Z,16.90
2022-08-02T07:42:49.474Z,16.90
2022-08-02T07:45:17.293Z,16.90
2022-08-02T07:47:46.196Z,17.00
2022-08-02T07:50:18.178Z,17.10
2022-08-02T07:52:46.985Z,17.10
2022-08-02T07:55:16.119Z,17.20
2022-08-02T07:57:46.806Z,17.30
2022-08-02T08:00:17.122Z,17.40
2022-08-02T08:02:45.916Z,17.40
2022-08-02T08:05:15.425Z,17.50
2022-08-02T08:07:43.254Z,17.60
2022-08-02T08:10:12.296Z,17.60
2022-08-02T08:12:40.181Z,17.70
2022-08-02T08:15:08.915Z,17.70
2022-08-02T08:17:38.235Z,17.80
2022-08-02T08:20:07.126Z,17.80
2022-08-02T08:22:36.246Z,17.90
2022-08-02T08:25:04.210Z,17.90
2022-08-02T08:27:32.161Z,18.00
2022-08-02T08:30:00.478Z,18.10
2022-08-02T08:32:28.306Z,18.10
2022-08-02T08:34:56.194Z,18.20
2022-08-02T08:37:24.023Z,18.30
2022-08-02T08:39:53.798Z,18.30
2022-08-02T08:42:26.858Z,18.40
2022-08-02T08:44:56.333Z,18.50
2022-08-02T08:47:33.870Z,18.60
2022-08-02T08:50:05.876Z,18.70
2022-08-02T08:52:41.962Z,18.70
2022-08-02T08:55:13.779Z,18.80
2022-08-02T08:57:43.646Z,18.90
2022-08-02T09:00:13.946Z,19.00
2022-08-02T09:02:43.028Z,19.10
2022-08-02T09:05:12.809Z,19.20
2022-08-02T09:07:42.780Z,19.30
2022-08-02T09:10:40.705Z,19.40
2022-08-02T09:13:38.839Z,19.50
2022-08-02T09:16:11.314Z,19.50
2022-08-02T09:18:43.685Z,19.60
2022-08-02T09:21:12.540Z,19.70
2022-08-02T09:23:41.843Z,19.80
2022-08-02T09:26:13.112Z,19.90
2022-08-02T09:28:42.823Z,20.00
2022-08-02T09:31:12.178Z,20.10
2022-08-02T09:33:41.530Z,20.20
2022-08-02T09:36:12.264Z,20.30
2022-08-02T09:38:41.511Z,20.40
2022-08-02T09:41:22.646Z,20.40
2022-08-02T09:44:03.816Z,20.50
2022-08-02T09:46:37.266Z,20.60
2022-08-02T09:49:07.490Z,20.70
2022-08-02T09:51:37.069Z,20.80
2022-08-02T09:54:08.788Z,20.90
2022-08-02T09:56:50.085Z,21.00
2022-08-02T09:59:20.057Z,21.10
2022-08-02T10:01:50.464Z,21.10
2022-08-02T10:04:22.689Z,21.20
2022-08-02T10:06:53.879Z,21.30
2022-08-02T10:09:22.760Z,21.40
2022-08-02T10:11:52.568Z,21.50
2022-08-02T10:14:23.705Z,21.50
2022-08-02T10:16:54.213Z,21.60
2022-08-02T10:20:01.175Z,21.70
2022-08-02T10:22:12.933Z,21.70
2022-08-02T10:24:48.134Z,21.80
2022-08-02T10:27:20.872Z,21.90
2022-08-02T10:29:55.196Z,21.90
2022-08-02T10:32:29.502Z,22.00
2022-08-02T10:35:18.917Z,22.00
2022-08-02T10:37:51.549Z,22.00
2022-08-02T10:40:26.511Z,22.10
2022-08-02T10:42:59.477Z,22.20
2022-08-02T10:45:29.805Z,22.20
2022-08-02T10:47:59.594Z,22.30
2022-08-02T10:50:54.274Z,22.50
2022-08-02T10:53:27.278Z,22.50
2022-08-02T10:55:56.234Z,22.60
2022-08-02T10:58:29.300Z,22.60
2022-08-02T11:00:59.066Z,22.70
2022-08-02T11:03:40.015Z,22.70
2022-08-02T11:06:25.349Z,22.80
2022-08-02T11:09:33.196Z,22.80
2022-08-02T11:12:04.153Z,22.90
2022-08-02T11:14:33.550Z,23.00
2022-08-02T11:17:12.919Z,23.10
2022-08-02T11:20:15.739Z,23.10
2022-08-02T11:22:47.014Z,23.20
2022-08-02T11:25:54.697Z,23.20
2022-08-02T11:28:25.904Z,23.20
2022-08-02T11:31:01.429Z,23.30
2022-08-02T11:33:35.938Z,23.40
2022-08-02T11:36:05.908Z,23.40
2022-08-02T11:38:35.472Z,23.40
2022-08-02T11:41:09.731Z,23.40
2022-08-02T11:43:38.692Z,23.50
2022-08-02T11:46:13.841Z,23.70
2022-08-02T11:48:44.227Z,23.80
2022-08-02T11:51:16.147Z,23.80
2022-08-02T11:53:47.709Z,23.80
2022-08-02T11:56:21.895Z,23.90
2022-08-02T11:59:03.718Z,24.00
2022-08-02T12:01:32.508Z,24.00
2022-08-02T12:04:13.276Z,24.00
2022-08-02T12:06:42.398Z,24.00
2022-08-02T12:09:18.021Z,24.00
2022-08-02T12:11:50.003Z,24.20
2022-08-02T12:14:18.488Z,24.20
2022-08-02T12:17:04.054Z,24.20
2022-08-02T12:19:32.960Z,24.30
2022-08-02T12:22:18.693Z,24.30
2022-08-02T12:24:49.982Z,24.40
2022-08-02T12:27:34.985Z,24.40
2022-08-02T12:30:06.638Z,24.40
2022-08-02T12:32:34.518Z,24.50
2022-08-02T12:35:10.874Z,24.50
2022-08-02T12:37:40.892Z,24.50
2022-08-02T12:40:32.774Z,24.50
2022-08-02T12:43:02.646Z,24.70
2022-08-02T12:45:48.672Z,24.70
2022-08-02T12:48:17.484Z,24.80
2022-08-02T12:50:46.785Z,24.90
2022-08-02T12:53:16.095Z,24.90
2022-08-02T12:56:00.026Z,24.90
2022-08-02T12:58:30.925Z,25.00
2022-08-02T13:01:00.746Z,25.00
2022-08-02T13:04:09.109Z,25.00
2022-08-02T13:06:43.253Z,25.10
2022-08-02T13:09:14.105Z,25.20
2022-08-02T13:11:44.173Z,25.20
2022-08-02T13:14:12.950Z,25.20
2022-08-02T13:16:45.871Z,25.30
2022-08-02T13:19:15.337Z,25.20
2022-08-02T13:22:01.446Z,25.10
2022-08-02T13:24:40.594Z,25.10
2022-08-02T13:27:24.083Z,25.10
2022-08-02T13:29:52.329Z,25.10
2022-08-02T13:32:20.959Z,25.10
2022-08-02T13:34:49.231Z,25.20
2022-08-02T13:37:17.080Z,25.30
2022-08-02T13:40:00.176Z,25.40
2022-08-02T13:42:35.647Z,25.50
2022-08-02T13:45:12.565Z,25.60
2022-08-02T13:47:57.463Z,25.60
2022-08-02T13:50:34.043Z,25.60
2022-08-02T13:53:01.845Z,25.50
2022-08-02T13:55:29.700Z,25.60
2022-08-02T13:57:59.963Z,25.60
2022-08-02T14:00:35.267Z,25.60
2022-08-02T14:03:05.148Z,25.60
2022-08-02T14:05:40.581Z,25.60
2022-08-02T14:08:17.676Z,25.50
2022-08-02T14:10:46.423Z,25.40
2022-08-02T14:13:15.943Z,25.40
2022-08-02T14:15:43.919Z,25.40
2022-08-02T14:18:11.791Z,25.40
2022-08-02T14:20:40.469Z,25.40
2022-08-02T14:23:08.276Z,25.30
2022-08-02T14:25:36.118Z,25.30
2022-08-02T14:28:04.129Z,25.40
2022-08-02T14:30:33.493Z,25.40
2022-08-02T14:33:01.861Z,25.40
2022-08-02T14:35:29.661Z,25.40
2022-08-02T14:37:57.561Z,25.40
2022-08-02T14:40:27.942Z,25.40
2022-08-02T14:42:56.072Z,25.50
2022-08-02T14:45:26.088Z,25.40
2022-08-02T14:48:06.410Z,25.50
2022-08-02T14:50:34.351Z,25.50
2022-08-02T14:53:02.127Z,25.50
2022-08-02T14:55:29.956Z,25.50
2022-08-02T14:57:58.522Z,25.50
2022-08-02T15:00:26.318Z,25.50
2022-08-02T15:02:56.719Z,25.60
2022-08-02T15:05:28.403Z,25.60
2022-08-02T15:07:56.135Z,25.60
2022-08-02T15:10:23.974Z,25.70
2022-08-02T15:12:51.708Z,25.60
2022-08-02T15:15:19.651Z,25.60
2022-08-02T15:17:47.450Z,25.70
2022-08-02T15:20:25.099Z,25.70
2022-08-02T15:22:57.076Z,25.70
2022-08-02T15:25:25.866Z,25.80
2022-08-02T15:27:53.613Z,25.80
2022-08-02T15:30:23.557Z,25.80
2022-08-02T15:32:53.471Z,25.80
2022-08-02T15:35:21.600Z,25.90
2022-08-02T15:37:50.599Z,25.80
2022-08-02T15:40:19.770Z,25.80
2022-08-02T15:42:47.515Z,25.80
2022-08-02T15:45:15.971Z,25.70
2022-08-02T15:47:48.110Z,25.60
2022-08-02T15:50:18.766Z,25.50
2022-08-02T15:52:46.566Z,25.50
2022-08-02T15:55:14.703Z,25.60
2022-08-02T15:57:43.850Z,25.60
2022-08-02T16:00:17.931Z,25.70
2022-08-02T16:02:47.641Z,25.60
2022-08-02T16:05:19.611Z,25.60
2022-08-02T16:07:47.897Z,25.50
2022-08-02T16:10:15.895Z,25.50
2022-08-02T16:12:45.341Z,25.40
2022-08-02T16:15:13.465Z,25.40
2022-08-02T16:17:53.796Z,25.40
2022-08-02T16:20:22.722Z,25.30
2022-08-02T16:22:50.496Z,25.30
2022-08-02T16:25:18.596Z,25.30
2022-08-02T16:27:57.758Z,25.30
2022-08-02T16:30:34.546Z,25.30
2022-08-02T16:33:02.582Z,25.30
2022-08-02T16:35:30.364Z,25.30
2022-08-02T16:37:58.176Z,25.30
2022-08-02T16:40:26.396Z,25.30
2022-08-02T16:42:55.531Z,25.30
2022-08-02T16:45:23.508Z,25.30
2022-08-02T16:47:54.897Z,25.30
2022-08-02T16:50:27.299Z,25.30
2022-08-02T16:52:57.012Z,25.20
2022-08-02T16:55:26.073Z,25.10
2022-08-02T16:57:58.695Z,25.10
2022-08-02T17:00:27.000Z,25.00
2022-08-02T17:02:54.833Z,25.00
2022-08-02T17:05:37.572Z,24.90
2022-08-02T17:08:17.125Z,24.90
2022-08-02T17:10:45.911Z,24.80
2022-08-02T17:13:15.358Z,24.80
2022-08-02T17:16:01.428Z,24.80
2022-08-02T17:18:32.495Z,24.80
2022-08-02T17:21:04.244Z,24.80
2022-08-02T17:24:04.398Z,24.80
2022-08-02T17:26:21.392Z,24.80
2022-08-02T17:29:16.426Z,24.80
2022-08-02T17:32:02.612Z,24.80
2022-08-02T17:34:32.445Z,24.80
2022-08-02T17:37:01.229Z,24.80
2022-08-02T17:39:52.268Z,24.80
2022-08-02T17:42:23.704Z,24.70
2022-08-02T17:44:54.111Z,24.80
2022-08-02T17:47:22.392Z,24.70
2022-08-02T17:49:50.310Z,24.70
2022-08-02T17:52:50.017Z,24.60
2022-08-02T17:55:10.769Z,24.70
2022-08-02T17:57:57.904Z,24.60
2022-08-02T18:00:33.673Z,24.60
2022-08-02T18:03:02.052Z,24.60
2022-08-02T18:05:39.859Z,24.60
2022-08-02T18:08:18.441Z,24.60
2022-08-02T18:10:49.210Z,24.60
2022-08-02T18:13:17.032Z,24.50
2022-08-02T18:15:46.170Z,24.50
2022-08-02T18:18:14.390Z,24.50
2022-08-02T18:20:45.784Z,24.50
2022-08-02T18:23:15.935Z,24.40
2022-08-02T18:25:46.865Z,24.40
2022-08-02T18:28:16.405Z,24.30
2022-08-02T18:30:45.781Z,24.30
2022-08-02T18:34:00.400Z,24.20
2022-08-02T18:36:24.418Z,24.20
2022-08-02T18:38:53.431Z,24.10
2022-08-02T18:41:23.402Z,24.10
2022-08-02T18:43:57.920Z,24.00
2022-08-02T18:47:20.713Z,24.00
2022-08-02T18:49:46.088Z,23.90
2022-08-02T18:52:15.300Z,23.90
2022-08-02T18:54:43.422Z,23.90
2022-08-02T18:58:18.592Z,23.80
2022-08-02T18:59:59.094Z,23.80
2022-08-02T19:02:28.320Z,23.70
2022-08-02T19:04:57.404Z,23.70
2022-08-02T19:07:49.879Z,23.70
2022-08-02T19:10:15.459Z,23.60
2022-08-02T19:12:43.654Z,23.60
2022-08-02T19:15:17.522Z,23.50
2022-08-02T19:17:55.376Z,23.50
2022-08-02T19:20:27.914Z,23.50
2022-08-02T19:23:00.158Z,23.50
2022-08-02T19:25:35.340Z,23.40
2022-08-02T19:28:08.209Z,23.40
2022-08-02T19:30:43.574Z,23.40
2022-08-02T19:33:54.264Z,23.40
2022-08-02T19:36:03.797Z,23.30
2022-08-02T19:38:43.437Z,23.20
2022-08-02T19:41:13.600Z,23.20
2022-08-02T19:46:31.271Z,23.10
2022-08-02T19:49:20.182Z,23.10
2022-08-02T19:51:55.614Z,23.10
2022-08-02T19:54:35.736Z,23.10
2022-08-02T19:57:23.252Z,23.00
2022-08-02T19:59:56.678Z,23.00
2022-08-02T20:02:28.580Z,23.00
2022-08-02T20:04:58.717Z,23.00
2022-08-02T20:07:54.673Z,23.00
2022-08-02T20:10:24.737Z,23.00
2022-08-02T20:12:56.498Z,23.00
2022-08-02T20:15:51.864Z,23.00
2022-08-02T20:18:15.614Z,22.90
2022-08-02T20:20:56.022Z,23.00
2022-08-02T20:23:33.753Z,22.90
2022-08-02T20:26:02.488Z,22.90
2022-08-02T20:28:30.267Z,22.80
2022-08-02T20:30:58.031Z,22.80
2022-08-02T20:33:34.955Z,22.80
2022-08-02T20:36:25.060Z,22.80
2022-08-02T20:38:53.055Z,22.70
2022-08-02T20:41:22.496Z,22.70
2022-08-02T20:43:50.243Z,22.70
2022-08-02T20:46:19.326Z,22.70
2022-08-02T20:48:48.340Z,22.60
2022-08-02T20:51:18.176Z,22.60
2022-08-02T20:54:02.736Z,22.60
2022-08-02T20:56:30.480Z,22.60
2022-08-02T20:59:03.603Z,22.50
2022-08-02T21:01:36.841Z,22.50
2022-08-02T21:04:05.263Z,22.50
2022-08-02T21:06:33.025Z,22.50
2022-08-02T21:09:02.085Z,22.50
2022-08-02T21:11:33.991Z,22.40
2022-08-02T21:14:07.352Z,22.40
2022-08-02T21:16:37.037Z,22.40
2022-08-02T21:19:08.017Z,22.30
2022-08-02T21:21:38.000Z,22.30
2022-08-02T21:24:07.538Z,22.30
2022-08-02T21:26:40.480Z,22.30
2022-08-02T21:29:10.357Z,22.20
2022-08-02T21:31:47.576Z,22.20
2022-08-02T21:34:26.564Z,22.20
2022-08-02T21:36:56.496Z,22.10
2022-08-02T21:39:25.621Z,22.20
2022-08-02T21:41:55.045Z,22.10
2022-08-02T21:44:23.811Z,22.10
2022-08-02T21:46:52.595Z,22.10
2022-08-02T21:49:40.523Z,22.10
2022-08-02T21:52:09.272Z,22.00
2022-08-02T21:54:45.341Z,22.00
2022-08-02T21:57:16.382Z,22.00
2022-08-02T21:59:45.761Z,22.00
2022-08-02T22:02:14.327Z,22.00
2022-08-02T22:04:47.957Z,22.00
2022-08-02T22:07:17.249Z,22.00
2022-08-02T22:09:46.466Z,22.00
2022-08-02T22:12:17.854Z,22.00
2022-08-02T22:14:54.307Z,22.00
2022-08-02T22:17:52.037Z,22.00
2022-08-02T22:20:14.127Z,22.00
2022-08-02T22:22:43.407Z,22.00
2022-08-02T22:25:30.978Z,22.00
2022-08-02T22:28:35.209Z,22.00
2022-08-02T22:30:52.586Z,21.90
2022-08-02T22:33:38.715Z,21.90
2022-08-02T22:36:11.337Z,21.90
2022-08-02T22:38:39.570Z,21.90
2022-08-02T22:41:15.012Z,21.90
2022-08-02T22:43:43.439Z,21.90
2022-08-02T22:46:15.427Z,21.90
2022-08-02T22:48:44.525Z,21.90
2022-08-02T22:51:17.678Z,21.90
2022-08-02T22:53:46.927Z,21.90
2022-08-02T22:56:16.845Z,21.90
2022-08-02T22:59:07.384Z,23.10
2022-08-02T23:01:32.590Z,21.90
2022-08-02T23:04:00.389Z,21.90
2022-08-02T23:06:28.522Z,21.90
2022-08-02T23:08:56.337Z,21.90
2022-08-02T23:11:25.397Z,21.90
2022-08-02T23:13:53.483Z,21.90
2022-08-02T23:16:39.508Z,21.90
2022-08-02T23:19:25.119Z,21.80
2022-08-02T23:22:01.314Z,21.80
2022-08-02T23:24:30.620Z,21.80
2022-08-02T23:26:59.724Z,21.80
2022-08-02T23:29:27.727Z,21.80
2022-08-02T23:31:59.081Z,21.70
2022-08-02T23:34:27.074Z,21.70
2022-08-02T23:36:54.993Z,21.60
2022-08-02T23:39:22.785Z,21.60
2022-08-02T23:41:54.954Z,21.50
2022-08-02T23:44:25.211Z,21.40
2022-08-02T23:46:56.598Z,21.40
2022-08-02T23:49:25.213Z,21.30
2022-08-02T23:51:56.120Z,21.30
2022-08-02T23:54:28.689Z,21.20
2022-08-02T23:56:56.413Z,21.20
2022-08-02T23:59:25.722Z,21.10
